sensor_id;sensor_type;location;lat;lon;timestamp;P1;durP1;ratioP1;P2;durP2;ratioP2
691;SDS011;328;50.086;8.576;2022-08-21T00:00:33;5.87;;;4.00;;
691;SDS011;328;50.086;8.576;2022-08-21T00:03:05;4.97;;;4.07;;
691;SDS011;328;50.086;8.576;2022-08-21T00:05:35;4.90;;;3.83;;
691;SDS011;328;50.086;8.576;2022-08-21T00:08:04;6.40;;;3.80;;
691;SDS011;328;50.086;8.576;2022-08-21T00:10:32;4.93;;;4.13;;
691;SDS011;328;50.086;8.576;2022-08-21T00:13:01;5.20;;;3.50;;
691;SDS011;328;50.086;8.576;2022-08-21T00:15:31;5.20;;;4.50;;
691;SDS011;328;50.086;8.576;2022-08-21T00:17:59;6.50;;;4.70;;
691;SDS011;328;50.086;8.576;2022-08-21T00:20:26;5.57;;;4.37;;
691;SDS011;328;50.086;8.576;2022-08-21T00:22:54;5.40;;;4.10;;
691;SDS011;328;50.086;8.576;2022-08-21T00:25:22;5.37;;;3.83;;
691;SDS011;328;50.086;8.576;2022-08-21T00:27:51;7.10;;;4.30;;
691;SDS011;328;50.086;8.576;2022-08-21T00:30:19;6.60;;;4.07;;
691;SDS011;328;50.086;8.576;2022-08-21T00:32:50;7.40;;;4.20;;
691;SDS011;328;50.086;8.576;2022-08-21T00:35:19;4.97;;;3.77;;
691;SDS011;328;50.086;8.576;2022-08-21T00:37:48;6.50;;;4.43;;
691;SDS011;328;50.086;8.576;2022-08-21T00:40:17;5.17;;;4.67;;
691;SDS011;328;50.086;8.576;2022-08-21T00:42:46;3.83;;;3.53;;
691;SDS011;328;50.086;8.576;2022-08-21T00:45:19;6.70;;;4.50;;
691;SDS011;328;50.086;8.576;2022-08-21T00:47:46;6.40;;;4.20;;
691;SDS011;328;50.086;8.576;2022-08-21T00:50:15;8.13;;;4.53;;
691;SDS011;328;50.086;8.576;2022-08-21T00:52:47;4.77;;;4.00;;
691;SDS011;328;50.086;8.576;2022-08-21T00:55:15;5.03;;;4.53;;
691;SDS011;328;50.086;8.576;2022-08-21T00:57:44;9.50;;;4.50;;
691;SDS011;328;50.086;8.576;2022-08-21T01:00:17;6.23;;;4.70;;
691;SDS011;328;50.086;8.576;2022-08-21T01:02:55;6.77;;;4.70;;
691;SDS011;328;50.086;8.576;2022-08-21T01:05:25;5.07;;;3.93;;
691;SDS011;328;50.086;8.576;2022-08-21T01:07:53;4.33;;;3.83;;
691;SDS011;328;50.086;8.576;2022-08-21T01:10:23;4.73;;;4.20;;
691;SDS011;328;50.086;8.576;2022-08-21T01:12:51;6.37;;;4.30;;
691;SDS011;328;50.086;8.576;2022-08-21T01:15:19;4.77;;;3.87;;
691;SDS011;328;50.086;8.576;2022-08-21T01:17:48;4.90;;;3.80;;
691;SDS011;328;50.086;8.576;2022-08-21T01:20:16;4.70;;;4.03;;
691;SDS011;328;50.086;8.576;2022-08-21T01:22:45;5.67;;;4.27;;
691;SDS011;328;50.086;8.576;2022-08-21T01:25:14;4.63;;;4.03;;
691;SDS011;328;50.086;8.576;2022-08-21T01:27:43;4.83;;;4.00;;
691;SDS011;328;50.086;8.576;2022-08-21T01:36:25;7.07;;;4.17;;
691;SDS011;328;50.086;8.576;2022-08-21T01:38:54;4.80;;;3.57;;
691;SDS011;328;50.086;8.576;2022-08-21T01:41:22;6.07;;;4.63;;
691;SDS011;328;50.086;8.576;2022-08-21T01:43:49;5.30;;;4.10;;
691;SDS011;328;50.086;8.576;2022-08-21T01:46:17;7.93;;;4.77;;
691;SDS011;328;50.086;8.576;2022-08-21T01:48:45;7.13;;;3.40;;
691;SDS011;328;50.086;8.576;2022-08-21T01:51:13;6.30;;;4.10;;
691;SDS011;328;50.086;8.576;2022-08-21T01:53:41;4.93;;;3.90;;
691;SDS011;328;50.086;8.576;2022-08-21T01:56:10;5.50;;;3.80;;
691;SDS011;328;50.086;8.576;2022-08-21T01:58:40;5.80;;;3.70;;
691;SDS011;328;50.086;8.576;2022-08-21T02:01:08;6.50;;;4.27;;
691;SDS011;328;50.086;8.576;2022-08-21T02:03:36;6.67;;;4.03;;
691;SDS011;328;50.086;8.576;2022-08-21T02:06:04;6.93;;;4.70;;
691;SDS011;328;50.086;8.576;2022-08-21T02:08:33;4.60;;;3.90;;
691;SDS011;328;50.086;8.576;2022-08-21T02:11:01;7.33;;;4.03;;
691;SDS011;328;50.086;8.576;2022-08-21T02:13:30;4.20;;;3.80;;
691;SDS011;328;50.086;8.576;2022-08-21T02:15:57;5.60;;;4.30;;
691;SDS011;328;50.086;8.576;2022-08-21T02:18:25;5.57;;;4.40;;
691;SDS011;328;50.086;8.576;2022-08-21T02:20:53;5.83;;;4.73;;
691;SDS011;328;50.086;8.576;2022-08-21T02:23:22;6.30;;;4.90;;
691;SDS011;328;50.086;8.576;2022-08-21T02:25:52;6.63;;;4.40;;
691;SDS011;328;50.086;8.576;2022-08-21T02:28:20;5.53;;;4.77;;
691;SDS011;328;50.086;8.576;2022-08-21T02:30:49;9.37;;;5.97;;
691;SDS011;328;50.086;8.576;2022-08-21T02:33:17;7.80;;;5.43;;
691;SDS011;328;50.086;8.576;2022-08-21T02:35:45;4.63;;;4.07;;
691;SDS011;328;50.086;8.576;2022-08-21T02:38:15;4.70;;;3.80;;
691;SDS011;328;50.086;8.576;2022-08-21T02:40:45;5.47;;;4.10;;
691;SDS011;328;50.086;8.576;2022-08-21T02:43:16;7.70;;;4.80;;
691;SDS011;328;50.086;8.576;2022-08-21T02:45:44;6.23;;;4.53;;
691;SDS011;328;50.086;8.576;2022-08-21T02:48:14;7.07;;;5.63;;
691;SDS011;328;50.086;8.576;2022-08-21T02:50:44;5.47;;;4.60;;
691;SDS011;328;50.086;8.576;2022-08-21T02:53:13;7.20;;;4.17;;
691;SDS011;328;50.086;8.576;2022-08-21T02:55:43;6.10;;;4.23;;
691;SDS011;328;50.086;8.576;2022-08-21T02:58:11;4.73;;;3.87;;
691;SDS011;328;50.086;8.576;2022-08-21T03:00:39;9.00;;;4.50;;
691;SDS011;328;50.086;8.576;2022-08-21T03:03:07;4.70;;;4.10;;
691;SDS011;328;50.086;8.576;2022-08-21T03:05:36;4.80;;;3.87;;
691;SDS011;328;50.086;8.576;2022-08-21T03:08:05;4.47;;;4.07;;
691;SDS011;328;50.086;8.576;2022-08-21T03:10:35;7.13;;;5.03;;
691;SDS011;328;50.086;8.576;2022-08-21T03:13:03;5.77;;;3.80;;
691;SDS011;328;50.086;8.576;2022-08-21T03:15:31;9.20;;;4.87;;
691;SDS011;328;50.086;8.576;2022-08-21T03:17:59;4.70;;;4.20;;
691;SDS011;328;50.086;8.576;2022-08-21T03:20:27;6.57;;;3.83;;
691;SDS011;328;50.086;8.576;2022-08-21T03:22:56;5.67;;;4.27;;
691;SDS011;328;50.086;8.576;2022-08-21T03:25:25;6.10;;;3.83;;
691;SDS011;328;50.086;8.576;2022-08-21T03:28:07;5.40;;;4.00;;
691;SDS011;328;50.086;8.576;2022-08-21T03:30:38;5.60;;;4.70;;
691;SDS011;328;50.086;8.576;2022-08-21T03:33:05;9.50;;;4.53;;
691;SDS011;328;50.086;8.576;2022-08-21T03:35:33;6.60;;;5.13;;
691;SDS011;328;50.086;8.576;2022-08-21T03:38:02;5.93;;;4.33;;
691;SDS011;328;50.086;8.576;2022-08-21T03:40:29;5.77;;;4.40;;
691;SDS011;328;50.086;8.576;2022-08-21T03:42:57;5.80;;;4.20;;
691;SDS011;328;50.086;8.576;2022-08-21T03:45:25;5.97;;;4.07;;
691;SDS011;328;50.086;8.576;2022-08-21T03:47:54;5.17;;;4.27;;
691;SDS011;328;50.086;8.576;2022-08-21T03:50:23;4.10;;;3.70;;
691;SDS011;328;50.086;8.576;2022-08-21T03:52:52;4.37;;;3.93;;
691;SDS011;328;50.086;8.576;2022-08-21T03:55:21;10.40;;;4.97;;
691;SDS011;328;50.086;8.576;2022-08-21T03:57:49;4.83;;;3.83;;
691;SDS011;328;50.086;8.576;2022-08-21T04:00:17;6.40;;;4.90;;
691;SDS011;328;50.086;8.576;2022-08-21T04:02:45;5.83;;;4.30;;
691;SDS011;328;50.086;8.576;2022-08-21T04:05:14;5.00;;;4.50;;
691;SDS011;328;50.086;8.576;2022-08-21T04:07:53;4.90;;;3.90;;
691;SDS011;328;50.086;8.576;2022-08-21T04:10:23;5.03;;;4.43;;
691;SDS011;328;50.086;8.576;2022-08-21T04:12:51;5.43;;;4.57;;
691;SDS011;328;50.086;8.576;2022-08-21T04:15:20;6.70;;;4.63;;
691;SDS011;328;50.086;8.576;2022-08-21T04:17:48;4.90;;;4.27;;
691;SDS011;328;50.086;8.576;2022-08-21T04:20:15;6.37;;;4.20;;
691;SDS011;328;50.086;8.576;2022-08-21T04:22:44;4.00;;;3.60;;
691;SDS011;328;50.086;8.576;2022-08-21T04:25:12;4.70;;;4.17;;
691;SDS011;328;50.086;8.576;2022-08-21T04:27:42;4.30;;;3.90;;
691;SDS011;328;50.086;8.576;2022-08-21T04:30:10;6.43;;;3.70;;
691;SDS011;328;50.086;8.576;2022-08-21T04:32:38;7.37;;;4.60;;
691;SDS011;328;50.086;8.576;2022-08-21T04:35:09;6.47;;;4.40;;
691;SDS011;328;50.086;8.576;2022-08-21T04:37:37;5.00;;;4.37;;
691;SDS011;328;50.086;8.576;2022-08-21T04:40:09;5.17;;;4.67;;
691;SDS011;328;50.086;8.576;2022-08-21T04:42:42;5.23;;;4.30;;
691;SDS011;328;50.086;8.576;2022-08-21T04:45:16;5.87;;;4.73;;
691;SDS011;328;50.086;8.576;2022-08-21T04:47:46;5.23;;;4.30;;
691;SDS011;328;50.086;8.576;2022-08-21T04:50:18;5.83;;;4.37;;
691;SDS011;328;50.086;8.576;2022-08-21T04:52:46;7.53;;;4.90;;
691;SDS011;328;50.086;8.576;2022-08-21T04:55:14;6.60;;;5.03;;
691;SDS011;328;50.086;8.576;2022-08-21T04:57:44;5.83;;;5.33;;
691;SDS011;328;50.086;8.576;2022-08-21T05:00:14;6.40;;;4.70;;
691;SDS011;328;50.086;8.576;2022-08-21T05:02:45;5.80;;;4.17;;
691;SDS011;328;50.086;8.576;2022-08-21T05:05:13;9.23;;;5.50;;
691;SDS011;328;50.086;8.576;2022-08-21T05:07:41;5.40;;;4.17;;
691;SDS011;328;50.086;8.576;2022-08-21T05:10:10;7.70;;;5.90;;
691;SDS011;328;50.086;8.576;2022-08-21T05:12:39;8.90;;;5.00;;
691;SDS011;328;50.086;8.576;2022-08-21T05:15:09;8.50;;;4.27;;
691;SDS011;328;50.086;8.576;2022-08-21T05:17:39;6.47;;;4.97;;
691;SDS011;328;50.086;8.576;2022-08-21T05:20:07;5.23;;;4.30;;
691;SDS011;328;50.086;8.576;2022-08-21T05:22:35;10.83;;;5.50;;
691;SDS011;328;50.086;8.576;2022-08-21T05:25:03;6.40;;;4.10;;
691;SDS011;328;50.086;8.576;2022-08-21T05:27:35;5.27;;;4.80;;
691;SDS011;328;50.086;8.576;2022-08-21T05:30:05;7.50;;;4.77;;
691;SDS011;328;50.086;8.576;2022-08-21T05:32:34;6.53;;;4.73;;
691;SDS011;328;50.086;8.576;2022-08-21T05:35:02;7.30;;;4.50;;
691;SDS011;328;50.086;8.576;2022-08-21T05:37:30;6.87;;;4.53;;
691;SDS011;328;50.086;8.576;2022-08-21T05:39:58;7.00;;;4.57;;
691;SDS011;328;50.086;8.576;2022-08-21T05:42:46;6.20;;;5.43;;
691;SDS011;328;50.086;8.576;2022-08-21T05:45:20;5.43;;;4.93;;
691;SDS011;328;50.086;8.576;2022-08-21T05:48:10;6.13;;;4.90;;
691;SDS011;328;50.086;8.576;2022-08-21T05:50:40;6.93;;;5.90;;
691;SDS011;328;50.086;8.576;2022-08-21T05:53:07;6.53;;;4.83;;
691;SDS011;328;50.086;8.576;2022-08-21T05:55:36;6.10;;;4.57;;
691;SDS011;328;50.086;8.576;2022-08-21T05:58:10;8.70;;;6.50;;
691;SDS011;328;50.086;8.576;2022-08-21T06:00:38;8.90;;;6.43;;
691;SDS011;328;50.086;8.576;2022-08-21T06:03:11;7.00;;;5.33;;
691;SDS011;328;50.086;8.576;2022-08-21T06:05:39;9.43;;;6.80;;
691;SDS011;328;50.086;8.576;2022-08-21T06:08:07;6.40;;;5.00;;
691;SDS011;328;50.086;8.576;2022-08-21T06:10:34;7.40;;;5.00;;
691;SDS011;328;50.086;8.576;2022-08-21T06:13:02;6.50;;;5.80;;
691;SDS011;328;50.086;8.576;2022-08-21T06:15:30;10.20;;;6.10;;
691;SDS011;328;50.086;8.576;2022-08-21T06:17:58;6.53;;;5.40;;
691;SDS011;328;50.086;8.576;2022-08-21T06:20:27;7.87;;;6.23;;
691;SDS011;328;50.086;8.576;2022-08-21T06:22:54;6.13;;;5.17;;
691;SDS011;328;50.086;8.576;2022-08-21T06:25:22;7.30;;;5.23;;
691;SDS011;328;50.086;8.576;2022-08-21T06:27:50;5.50;;;4.60;;
691;SDS011;328;50.086;8.576;2022-08-21T06:30:18;7.20;;;5.13;;
691;SDS011;328;50.086;8.576;2022-08-21T06:32:46;12.23;;;6.57;;
691;SDS011;328;50.086;8.576;2022-08-21T06:35:13;7.90;;;5.60;;
691;SDS011;328;50.086;8.576;2022-08-21T06:37:42;6.73;;;5.50;;
691;SDS011;328;50.086;8.576;2022-08-21T06:40:10;6.47;;;5.53;;
691;SDS011;328;50.086;8.576;2022-08-21T06:42:38;6.10;;;5.47;;
691;SDS011;328;50.086;8.576;2022-08-21T06:45:08;7.83;;;5.37;;
691;SDS011;328;50.086;8.576;2022-08-21T06:47:36;9.73;;;5.20;;
691;SDS011;328;50.086;8.576;2022-08-21T06:50:04;9.63;;;6.80;;
691;SDS011;328;50.086;8.576;2022-08-21T06:52:33;7.63;;;5.90;;
691;SDS011;328;50.086;8.576;2022-08-21T06:55:02;12.20;;;6.57;;
691;SDS011;328;50.086;8.576;2022-08-21T06:57:32;6.70;;;5.20;;
691;SDS011;328;50.086;8.576;2022-08-21T07:00:00;7.53;;;4.83;;
691;SDS011;328;50.086;8.576;2022-08-21T07:02:27;8.40;;;5.00;;
691;SDS011;328;50.086;8.576;2022-08-21T07:04:55;7.73;;;5.67;;
691;SDS011;328;50.086;8.576;2022-08-21T07:07:23;11.40;;;6.10;;
691;SDS011;328;50.086;8.576;2022-08-21T07:09:50;5.60;;;4.47;;
691;SDS011;328;50.086;8.576;2022-08-21T07:12:19;9.10;;;5.63;;
691;SDS011;328;50.086;8.576;2022-08-21T07:14:47;7.50;;;4.93;;
691;SDS011;328;50.086;8.576;2022-08-21T07:17:14;6.50;;;4.67;;
691;SDS011;328;50.086;8.576;2022-08-21T07:19:42;8.20;;;5.30;;
691;SDS011;328;50.086;8.576;2022-08-21T07:22:09;6.10;;;4.57;;
691;SDS011;328;50.086;8.576;2022-08-21T07:24:37;7.17;;;4.67;;
691;SDS011;328;50.086;8.576;2022-08-21T07:27:05;10.33;;;5.90;;
691;SDS011;328;50.086;8.576;2022-08-21T07:29:36;9.50;;;4.80;;
691;SDS011;328;50.086;8.576;2022-08-21T07:32:04;7.30;;;4.80;;
691;SDS011;328;50.086;8.576;2022-08-21T07:34:32;5.93;;;5.07;;
691;SDS011;328;50.086;8.576;2022-08-21T07:37:00;7.43;;;5.07;;
691;SDS011;328;50.086;8.576;2022-08-21T07:39:35;5.37;;;4.10;;
691;SDS011;328;50.086;8.576;2022-08-21T07:42:03;5.93;;;4.60;;
691;SDS011;328;50.086;8.576;2022-08-21T07:44:33;5.40;;;4.20;;
691;SDS011;328;50.086;8.576;2022-08-21T07:47:02;10.73;;;4.80;;
691;SDS011;328;50.086;8.576;2022-08-21T07:49:30;5.50;;;4.40;;
691;SDS011;328;50.086;8.576;2022-08-21T07:51:58;7.23;;;4.70;;
691;SDS011;328;50.086;8.576;2022-08-21T07:54:25;6.50;;;4.60;;
691;SDS011;328;50.086;8.576;2022-08-21T07:57:00;6.90;;;4.30;;
691;SDS011;328;50.086;8.576;2022-08-21T07:59:27;6.53;;;4.83;;
691;SDS011;328;50.086;8.576;2022-08-21T08:01:55;6.50;;;4.83;;
691;SDS011;328;50.086;8.576;2022-08-21T08:04:24;4.73;;;3.80;;
691;SDS011;328;50.086;8.576;2022-08-21T08:06:52;6.13;;;4.67;;
691;SDS011;328;50.086;8.576;2022-08-21T08:09:19;10.80;;;4.27;;
691;SDS011;328;50.086;8.576;2022-08-21T08:11:47;6.60;;;4.27;;
691;SDS011;328;50.086;8.576;2022-08-21T08:14:15;10.30;;;5.10;;
691;SDS011;328;50.086;8.576;2022-08-21T08:16:43;5.50;;;4.27;;
691;SDS011;328;50.086;8.576;2022-08-21T08:19:11;5.97;;;4.30;;
691;SDS011;328;50.086;8.576;2022-08-21T08:21:40;5.10;;;4.37;;
691;SDS011;328;50.086;8.576;2022-08-21T08:24:07;4.57;;;4.00;;
691;SDS011;328;50.086;8.576;2022-08-21T08:26:45;8.77;;;5.60;;
691;SDS011;328;50.086;8.576;2022-08-21T08:29:19;8.90;;;5.47;;
691;SDS011;328;50.086;8.576;2022-08-21T08:31:47;6.30;;;5.10;;
691;SDS011;328;50.086;8.576;2022-08-21T08:34:15;5.83;;;4.73;;
691;SDS011;328;50.086;8.576;2022-08-21T08:36:52;6.10;;;5.07;;
691;SDS011;328;50.086;8.576;2022-08-21T08:39:20;7.57;;;4.80;;
691;SDS011;328;50.086;8.576;2022-08-21T08:41:56;5.90;;;5.37;;
691;SDS011;328;50.086;8.576;2022-08-21T08:44:26;5.80;;;4.87;;
691;SDS011;328;50.086;8.576;2022-08-21T08:46:55;7.20;;;5.80;;
691;SDS011;328;50.086;8.576;2022-08-21T08:49:24;6.43;;;5.80;;
691;SDS011;328;50.086;8.576;2022-08-21T08:51:57;12.03;;;4.87;;
691;SDS011;328;50.086;8.576;2022-08-21T08:54:28;10.03;;;8.97;;
691;SDS011;328;50.086;8.576;2022-08-21T08:56:58;11.20;;;8.17;;
691;SDS011;328;50.086;8.576;2022-08-21T08:59:27;7.10;;;4.50;;
691;SDS011;328;50.086;8.576;2022-08-21T09:01:59;6.80;;;4.33;;
691;SDS011;328;50.086;8.576;2022-08-21T09:04:27;6.03;;;4.70;;
691;SDS011;328;50.086;8.576;2022-08-21T09:07:00;6.03;;;4.00;;
691;SDS011;328;50.086;8.576;2022-08-21T09:09:34;3.73;;;3.37;;
691;SDS011;328;50.086;8.576;2022-08-21T09:12:12;4.30;;;3.30;;
691;SDS011;328;50.086;8.576;2022-08-21T09:14:47;4.80;;;3.43;;
691;SDS011;328;50.086;8.576;2022-08-21T09:17:25;4.20;;;3.23;;
691;SDS011;328;50.086;8.576;2022-08-21T09:20:10;6.53;;;3.53;;
691;SDS011;328;50.086;8.576;2022-08-21T09:22:46;3.73;;;3.33;;
691;SDS011;328;50.086;8.576;2022-08-21T09:25:26;3.50;;;2.93;;
691;SDS011;328;50.086;8.576;2022-08-21T09:27:55;8.13;;;3.13;;
691;SDS011;328;50.086;8.576;2022-08-21T09:30:24;5.07;;;3.00;;
691;SDS011;328;50.086;8.576;2022-08-21T09:32:54;4.23;;;2.33;;
691;SDS011;328;50.086;8.576;2022-08-21T09:35:23;3.40;;;2.40;;
691;SDS011;328;50.086;8.576;2022-08-21T09:37:54;7.10;;;2.93;;
691;SDS011;328;50.086;8.576;2022-08-21T09:40:28;5.07;;;2.97;;
691;SDS011;328;50.086;8.576;2022-08-21T09:43:00;5.50;;;2.73;;
691;SDS011;328;50.086;8.576;2022-08-21T09:45:29;6.20;;;3.10;;
691;SDS011;328;50.086;8.576;2022-08-21T09:48:08;4.03;;;2.50;;
691;SDS011;328;50.086;8.576;2022-08-21T09:50:37;3.90;;;2.87;;
691;SDS011;328;50.086;8.576;2022-08-21T09:53:13;8.80;;;3.37;;
691;SDS011;328;50.086;8.576;2022-08-21T09:55:47;4.97;;;3.90;;
691;SDS011;328;50.086;8.576;2022-08-21T09:58:34;4.97;;;2.87;;
691;SDS011;328;50.086;8.576;2022-08-21T10:01:04;6.00;;;3.30;;
691;SDS011;328;50.086;8.576;2022-08-21T10:03:33;3.10;;;2.70;;
691;SDS011;328;50.086;8.576;2022-08-21T10:06:02;9.47;;;4.40;;
691;SDS011;328;50.086;8.576;2022-08-21T10:08:36;3.93;;;3.33;;
691;SDS011;328;50.086;8.576;2022-08-21T10:11:07;4.90;;;3.53;;
691;SDS011;328;50.086;8.576;2022-08-21T10:13:40;6.00;;;3.40;;
691;SDS011;328;50.086;8.576;2022-08-21T10:16:22;6.20;;;3.20;;
691;SDS011;328;50.086;8.576;2022-08-21T10:18:56;4.10;;;2.67;;
691;SDS011;328;50.086;8.576;2022-08-21T10:21:30;7.17;;;3.30;;
691;SDS011;328;50.086;8.576;2022-08-21T10:24:05;7.20;;;2.90;;
691;SDS011;328;50.086;8.576;2022-08-21T10:26:37;6.90;;;3.60;;
691;SDS011;328;50.086;8.576;2022-08-21T10:29:14;4.60;;;3.50;;
691;SDS011;328;50.086;8.576;2022-08-21T10:31:49;5.53;;;3.33;;
691;SDS011;328;50.086;8.576;2022-08-21T10:34:25;6.47;;;3.30;;
691;SDS011;328;50.086;8.576;2022-08-21T10:37:02;4.87;;;2.77;;
691;SDS011;328;50.086;8.576;2022-08-21T10:39:39;3.97;;;3.30;;
691;SDS011;328;50.086;8.576;2022-08-21T10:42:25;5.43;;;3.20;;
691;SDS011;328;50.086;8.576;2022-08-21T10:45:00;3.33;;;3.03;;
691;SDS011;328;50.086;8.576;2022-08-21T10:47:35;5.40;;;3.17;;
691;SDS011;328;50.086;8.576;2022-08-21T10:50:09;4.10;;;3.47;;
691;SDS011;328;50.086;8.576;2022-08-21T10:52:47;4.17;;;2.70;;
691;SDS011;328;50.086;8.576;2022-08-21T10:55:26;4.30;;;3.10;;
691;SDS011;328;50.086;8.576;2022-08-21T10:58:01;5.40;;;3.03;;
691;SDS011;328;50.086;8.576;2022-08-21T11:00:33;5.70;;;3.87;;
691;SDS011;328;50.086;8.576;2022-08-21T11:03:04;4.23;;;2.50;;
691;SDS011;328;50.086;8.576;2022-08-21T11:05:35;4.10;;;3.23;;
691;SDS011;328;50.086;8.576;2022-08-21T11:08:10;2.63;;;2.10;;
691;SDS011;328;50.086;8.576;2022-08-21T11:10:44;4.70;;;2.83;;
691;SDS011;328;50.086;8.576;2022-08-21T11:13:26;5.53;;;3.00;;
691;SDS011;328;50.086;8.576;2022-08-21T11:16:02;3.73;;;3.10;;
691;SDS011;328;50.086;8.576;2022-08-21T11:18:34;3.10;;;2.37;;
691;SDS011;328;50.086;8.576;2022-08-21T11:21:11;5.70;;;2.50;;
691;SDS011;328;50.086;8.576;2022-08-21T11:23:49;5.30;;;2.70;;
691;SDS011;328;50.086;8.576;2022-08-21T11:26:34;7.30;;;2.20;;
691;SDS011;328;50.086;8.576;2022-08-21T11:29:16;5.40;;;3.17;;
691;SDS011;328;50.086;8.576;2022-08-21T11:31:50;5.50;;;2.30;;
691;SDS011;328;50.086;8.576;2022-08-21T11:34:26;4.23;;;2.47;;
691;SDS011;328;50.086;8.576;2022-08-21T11:37:01;3.83;;;2.07;;
691;SDS011;328;50.086;8.576;2022-08-21T11:39:34;3.50;;;2.23;;
691;SDS011;328;50.086;8.576;2022-08-21T11:42:08;3.30;;;1.80;;
691;SDS011;328;50.086;8.576;2022-08-21T11:44:45;6.03;;;2.50;;
691;SDS011;328;50.086;8.576;2022-08-21T11:47:19;5.43;;;2.73;;
691;SDS011;328;50.086;8.576;2022-08-21T11:49:59;5.10;;;2.70;;
691;SDS011;328;50.086;8.576;2022-08-21T11:52:44;4.70;;;2.03;;
691;SDS011;328;50.086;8.576;2022-08-21T11:55:15;3.20;;;1.90;;
691;SDS011;328;50.086;8.576;2022-08-21T11:57:51;4.20;;;2.60;;
691;SDS011;328;50.086;8.576;2022-08-21T12:00:22;3.73;;;2.13;;
691;SDS011;328;50.086;8.576;2022-08-21T12:02:56;3.47;;;2.13;;
691;SDS011;328;50.086;8.576;2022-08-21T12:05:28;4.27;;;2.77;;
691;SDS011;328;50.086;8.576;2022-08-21T12:08:02;4.73;;;2.30;;
691;SDS011;328;50.086;8.576;2022-08-21T12:10:32;6.47;;;2.30;;
691;SDS011;328;50.086;8.576;2022-08-21T12:13:21;4.03;;;2.80;;
691;SDS011;328;50.086;8.576;2022-08-21T12:16:10;3.40;;;2.23;;
691;SDS011;328;50.086;8.576;2022-08-21T12:18:38;3.17;;;2.27;;
691;SDS011;328;50.086;8.576;2022-08-21T12:21:22;5.80;;;2.40;;
691;SDS011;328;50.086;8.576;2022-08-21T12:23:59;2.93;;;1.97;;
691;SDS011;328;50.086;8.576;2022-08-21T12:26:30;3.10;;;2.00;;
691;SDS011;328;50.086;8.576;2022-08-21T12:29:06;3.00;;;2.10;;
691;SDS011;328;50.086;8.576;2022-08-21T12:31:54;4.97;;;2.20;;
691;SDS011;328;50.086;8.576;2022-08-21T12:34:31;3.43;;;3.13;;
691;SDS011;328;50.086;8.576;2022-08-21T12:37:16;4.93;;;2.60;;
691;SDS011;328;50.086;8.576;2022-08-21T12:39:53;10.83;;;2.77;;
691;SDS011;328;50.086;8.576;2022-08-21T12:42:34;3.97;;;2.40;;
691;SDS011;328;50.086;8.576;2022-08-21T12:45:14;3.00;;;2.27;;
691;SDS011;328;50.086;8.576;2022-08-21T12:48:10;2.70;;;2.10;;
691;SDS011;328;50.086;8.576;2022-08-21T12:50:51;3.80;;;2.50;;
691;SDS011;328;50.086;8.576;2022-08-21T12:53:33;2.77;;;2.30;;
691;SDS011;328;50.086;8.576;2022-08-21T12:56:16;3.70;;;2.27;;
691;SDS011;328;50.086;8.576;2022-08-21T12:58:48;3.60;;;1.90;;
691;SDS011;328;50.086;8.576;2022-08-21T13:01:36;4.40;;;2.13;;
691;SDS011;328;50.086;8.576;2022-08-21T13:04:22;5.63;;;2.20;;
691;SDS011;328;50.086;8.576;2022-08-21T13:06:58;2.63;;;1.90;;
691;SDS011;328;50.086;8.576;2022-08-21T13:09:58;3.83;;;2.47;;
691;SDS011;328;50.086;8.576;2022-08-21T13:12:32;5.70;;;2.00;;
691;SDS011;328;50.086;8.576;2022-08-21T13:15:23;3.07;;;2.67;;
691;SDS011;328;50.086;8.576;2022-08-21T13:28:56;3.23;;;2.50;;
691;SDS011;328;50.086;8.576;2022-08-21T13:32:25;3.67;;;1.93;;
691;SDS011;328;50.086;8.576;2022-08-21T13:35:30;4.27;;;3.10;;
691;SDS011;328;50.086;8.576;2022-08-21T13:38:41;3.30;;;2.10;;
691;SDS011;328;50.086;8.576;2022-08-21T13:42:18;3.80;;;2.40;;
691;SDS011;328;50.086;8.576;2022-08-21T13:45:23;6.07;;;3.47;;
691;SDS011;328;50.086;8.576;2022-08-21T13:49:09;3.30;;;1.83;;
691;SDS011;328;50.086;8.576;2022-08-21T13:58:54;4.80;;;2.10;;
691;SDS011;328;50.086;8.576;2022-08-21T14:04:39;4.30;;;2.70;;
691;SDS011;328;50.086;8.576;2022-08-21T14:07:19;5.20;;;2.00;;
691;SDS011;328;50.086;8.576;2022-08-21T14:09:49;2.00;;;1.70;;
691;SDS011;328;50.086;8.576;2022-08-21T14:12:19;3.00;;;1.50;;
691;SDS011;328;50.086;8.576;2022-08-21T14:14:52;2.93;;;1.60;;
691;SDS011;328;50.086;8.576;2022-08-21T14:17:26;4.03;;;1.67;;
691;SDS011;328;50.086;8.576;2022-08-21T14:19:59;3.43;;;2.23;;
691;SDS011;328;50.086;8.576;2022-08-21T14:22:28;5.77;;;3.43;;
691;SDS011;328;50.086;8.576;2022-08-21T14:24:59;4.03;;;3.30;;
691;SDS011;328;50.086;8.576;2022-08-21T14:27:29;3.23;;;2.00;;
691;SDS011;328;50.086;8.576;2022-08-21T14:29:58;6.00;;;2.10;;
691;SDS011;328;50.086;8.576;2022-08-21T14:32:28;3.00;;;1.60;;
691;SDS011;328;50.086;8.576;2022-08-21T14:34:58;2.30;;;1.50;;
691;SDS011;328;50.086;8.576;2022-08-21T14:37:25;4.67;;;2.20;;
691;SDS011;328;50.086;8.576;2022-08-21T14:39:53;4.60;;;1.60;;
691;SDS011;328;50.086;8.576;2022-08-21T14:42:20;3.50;;;1.57;;
691;SDS011;328;50.086;8.576;2022-08-21T14:44:49;2.27;;;1.53;;
691;SDS011;328;50.086;8.576;2022-08-21T14:47:17;3.87;;;1.70;;
691;SDS011;328;50.086;8.576;2022-08-21T14:49:45;4.23;;;1.73;;
691;SDS011;328;50.086;8.576;2022-08-21T14:52:12;4.30;;;1.80;;
691;SDS011;328;50.086;8.576;2022-08-21T14:54:40;2.00;;;1.57;;
691;SDS011;328;50.086;8.576;2022-08-21T14:57:08;3.80;;;2.43;;
691;SDS011;328;50.086;8.576;2022-08-21T14:59:38;5.20;;;2.00;;
691;SDS011;328;50.086;8.576;2022-08-21T15:02:08;3.30;;;2.17;;
691;SDS011;328;50.086;8.576;2022-08-21T15:04:36;2.27;;;1.90;;
691;SDS011;328;50.086;8.576;2022-08-21T15:07:04;4.33;;;2.53;;
691;SDS011;328;50.086;8.576;2022-08-21T15:09:32;2.13;;;1.40;;
691;SDS011;328;50.086;8.576;2022-08-21T15:12:00;6.40;;;5.77;;
691;SDS011;328;50.086;8.576;2022-08-21T15:14:29;2.20;;;1.77;;
691;SDS011;328;50.086;8.576;2022-08-21T15:16:58;7.60;;;5.77;;
691;SDS011;328;50.086;8.576;2022-08-21T15:19:27;3.40;;;1.97;;
691;SDS011;328;50.086;8.576;2022-08-21T15:21:55;4.37;;;1.73;;
691;SDS011;328;50.086;8.576;2022-08-21T15:24:23;2.80;;;1.80;;
691;SDS011;328;50.086;8.576;2022-08-21T15:26:51;5.67;;;2.23;;
691;SDS011;328;50.086;8.576;2022-08-21T15:29:20;3.93;;;1.80;;
691;SDS011;328;50.086;8.576;2022-08-21T15:31:52;2.37;;;1.60;;
691;SDS011;328;50.086;8.576;2022-08-21T15:34:22;2.07;;;1.40;;
691;SDS011;328;50.086;8.576;2022-08-21T15:36:54;2.93;;;1.80;;
691;SDS011;328;50.086;8.576;2022-08-21T15:39:22;3.03;;;1.70;;
691;SDS011;328;50.086;8.576;2022-08-21T15:41:56;3.93;;;2.10;;
691;SDS011;328;50.086;8.576;2022-08-21T15:44:24;3.30;;;1.93;;
691;SDS011;328;50.086;8.576;2022-08-21T15:46:52;4.23;;;1.67;;
691;SDS011;328;50.086;8.576;2022-08-21T15:49:19;5.77;;;1.50;;
691;SDS011;328;50.086;8.576;2022-08-21T15:51:47;2.20;;;1.40;;
691;SDS011;328;50.086;8.576;2022-08-21T15:54:16;3.87;;;1.70;;
691;SDS011;328;50.086;8.576;2022-08-21T15:56:44;3.43;;;1.47;;
691;SDS011;328;50.086;8.576;2022-08-21T15:59:14;2.23;;;1.30;;
691;SDS011;328;50.086;8.576;2022-08-21T16:01:43;1.80;;;1.00;;
691;SDS011;328;50.086;8.576;2022-08-21T16:04:11;2.00;;;1.00;;
691;SDS011;328;50.086;8.576;2022-08-21T16:06:53;2.20;;;1.33;;
691;SDS011;328;50.086;8.576;2022-08-21T16:09:31;3.07;;;1.27;;
691;SDS011;328;50.086;8.576;2022-08-21T16:11:59;3.53;;;1.70;;
691;SDS011;328;50.086;8.576;2022-08-21T16:14:27;2.43;;;1.40;;
691;SDS011;328;50.086;8.576;2022-08-21T16:16:55;2.50;;;1.77;;
691;SDS011;328;50.086;8.576;2022-08-21T16:19:23;1.97;;;1.00;;
691;SDS011;328;50.086;8.576;2022-08-21T16:21:52;4.40;;;1.77;;
691;SDS011;328;50.086;8.576;2022-08-21T16:24:19;2.33;;;1.37;;
691;SDS011;328;50.086;8.576;2022-08-21T16:26:48;3.20;;;1.30;;
691;SDS011;328;50.086;8.576;2022-08-21T16:29:23;3.67;;;1.50;;
691;SDS011;328;50.086;8.576;2022-08-21T16:31:52;2.40;;;1.10;;
691;SDS011;328;50.086;8.576;2022-08-21T16:34:19;3.80;;;1.70;;
691;SDS011;328;50.086;8.576;2022-08-21T16:36:47;4.13;;;1.50;;
691;SDS011;328;50.086;8.576;2022-08-21T16:39:15;3.30;;;1.43;;
691;SDS011;328;50.086;8.576;2022-08-21T16:41:42;3.00;;;1.27;;